Time;durP1;ratioP1;P1;durP2;ratioP2;P2;SDS_P1;SDS_P2;PMS_P1;PMS_P2;Temp;Humidity;BMP_temperature;BMP_pressure;BME280_temperature;BME280_humidity;BME280_pressure;Samples;Min_cycle;Max_cycle;Signal;HPM_P1;HPM_P2
2021/08/19 00:00:36;;;;;;;13.03;9.37;;;16.50;93.70;;;;;;5033915;28;20072;-69
2021/08/19 00:03:03;;;;;;;13.80;10.43;;;16.60;93.70;;;;;;5034365;28;20057;-70
2021/08/19 00:05:28;;;;;;;11.80;10.57;;;16.50;93.80;;;;;;5034390;28;20045;-69
2021/08/19 00:07:54;;;;;;;14.23;10.27;;;16.50;93.90;;;;;;5033299;28;20056;-70
2021/08/19 00:10:20;;;;;;;12.27;10.03;;;16.50;93.90;;;;;;5034530;28;20457;-70
2021/08/19 00:12:45;;;;;;;13.67;10.13;;;16.50;93.90;;;;;;5034144;28;20057;-70
2021/08/19 00:15:11;;;;;;;12.10;9.40;;;16.40;93.90;;;;;;5033838;28;20053;-69
2021/08/19 00:17:37;;;;;;;12.27;9.97;;;16.40;94.00;;;;;;5034195;28;20068;-69
2021/08/19 00:20:04;;;;;;;14.47;10.03;;;16.50;94.00;;;;;;5034253;28;20057;-69
2021/08/19 00:22:32;;;;;;;13.77;10.33;;;16.50;94.10;;;;;;5033188;28;20049;-69
2021/08/19 00:24:59;;;;;;;13.83;10.50;;;16.40;94.10;;;;;;5033841;28;20046;-69
2021/08/19 00:27:26;;;;;;;11.00;9.90;;;16.40;94.10;;;;;;5034066;28;20056;-69
2021/08/19 00:29:52;;;;;;;11.77;9.57;;;16.40;94.10;;;;;;5032678;28;20057;-69
2021/08/19 00:32:18;;;;;;;11.90;10.00;;;16.40;94.10;;;;;;5033750;28;20568;-69
2021/08/19 00:34:44;;;;;;;13.57;10.80;;;16.40;94.10;;;;;;5033329;28;20069;-70
2021/08/19 00:37:09;;;;;;;13.50;10.07;;;16.50;94.10;;;;;;5032895;28;20053;-69
2021/08/19 00:39:39;;;;;;;11.80;9.47;;;16.40;94.00;;;;;;5033835;28;20073;-69
2021/08/19 00:42:08;;;;;;;11.87;9.87;;;16.50;94.00;;;;;;5033733;28;20049;-69
2021/08/19 00:44:33;;;;;;;13.17;10.17;;;16.50;94.00;;;;;;5033664;28;20046;-69
2021/08/19 00:46:59;;;;;;;10.73;9.43;;;16.40;94.00;;;;;;5033092;28;20061;-69
2021/08/19 00:49:25;;;;;;;12.90;10.13;;;16.50;94.00;;;;;;5032723;28;20413;-70
2021/08/19 00:51:53;;;;;;;13.47;10.30;;;16.40;94.00;;;;;;5033865;28;20136;-69
2021/08/19 00:54:27;;;;;;;12.30;9.73;;;16.40;94.00;;;;;;5033539;28;20148;-69
2021/08/19 00:56:54;;;;;;;10.73;9.63;;;16.50;94.00;;;;;;5032303;28;20053;-69
2021/08/19 00:59:23;;;;;;;12.60;9.80;;;16.40;94.00;;;;;;5033472;28;20095;-68
2021/08/19 01:01:56;;;;;;;12.97;9.80;;;16.40;94.00;;;;;;5032966;28;20486;-69
2021/08/19 01:04:22;;;;;;;11.37;10.10;;;16.40;94.00;;;;;;5032985;28;20042;-68
2021/08/19 01:06:48;;;;;;;10.90;9.00;;;16.40;94.00;;;;;;5032879;28;20057;-68
2021/08/19 01:09:16;;;;;;;11.93;9.97;;;16.40;94.00;;;;;;5033284;28;20068;-69
2021/08/19 01:11:45;;;;;;;11.63;10.43;;;16.40;94.10;;;;;;5032264;28;20115;-69
2021/08/19 01:14:12;;;;;;;12.67;10.40;;;16.40;94.10;;;;;;5032976;28;20042;-68
2021/08/19 01:16:38;;;;;;;13.87;9.80;;;16.40;94.10;;;;;;5032764;28;20049;-69
2021/08/19 01:19:04;;;;;;;13.07;10.47;;;16.40;94.10;;;;;;5032024;28;20049;-69
2021/08/19 01:21:30;;;;;;;12.17;10.90;;;16.40;94.10;;;;;;5033032;28;20057;-69
2021/08/19 01:23:59;;;;;;;11.80;10.50;;;16.40;94.10;;;;;;5032867;28;20482;-68
2021/08/19 01:26:26;;;;;;;12.90;10.53;;;16.40;94.10;;;;;;5032235;28;20132;-68
2021/08/19 01:28:55;;;;;;;13.40;10.03;;;16.40;94.10;;;;;;5032427;28;20072;-68
2021/08/19 01:31:24;;;;;;;12.50;10.53;;;16.40;94.10;;;;;;5032499;28;20141;-68
2021/08/19 01:33:50;;;;;;;13.70;10.17;;;16.40;94.20;;;;;;5032679;28;20136;-68
2021/08/19 01:36:17;;;;;;;11.47;10.03;;;16.40;94.10;;;;;;5032829;28;20073;-68
2021/08/19 01:38:45;;;;;;;12.80;10.80;;;16.40;94.20;;;;;;5031768;28;20065;-69
2021/08/19 01:41:11;;;;;;;13.20;10.30;;;16.40;94.20;;;;;;5032666;28;20467;-68
2021/08/19 01:43:39;;;;;;;15.03;10.27;;;16.40;94.20;;;;;;5032596;28;20498;-69
2021/08/19 01:46:09;;;;;;;12.40;10.00;;;16.50;94.20;;;;;;5032609;28;20124;-69
2021/08/19 01:48:35;;;;;;;11.87;10.50;;;16.40;94.20;;;;;;5033548;28;20513;-68
2021/08/19 01:51:03;;;;;;;15.67;11.40;;;16.50;94.30;;;;;;5032418;28;20041;-69
2021/08/19 01:53:28;;;;;;;13.80;10.10;;;16.50;94.30;;;;;;5031647;28;20555;-69
2021/08/19 01:55:54;;;;;;;12.40;10.70;;;16.40;94.20;;;;;;5031991;28;20049;-70
2021/08/19 01:58:21;;;;;;;11.97;10.57;;;16.40;94.30;;;;;;5032351;28;20332;-69
2021/08/19 02:00:47;;;;;;;14.47;10.40;;;16.40;94.30;;;;;;5031370;28;20057;-68
2021/08/19 02:03:13;;;;;;;11.60;10.40;;;16.50;94.40;;;;;;5032639;28;20064;-69
2021/08/19 02:05:39;;;;;;;12.57;10.20;;;16.40;94.30;;;;;;5032264;28;20045;-69
2021/08/19 02:08:07;;;;;;;13.10;10.13;;;16.50;94.40;;;;;;5031450;28;20135;-69
2021/08/19 02:10:33;;;;;;;11.97;9.97;;;16.50;94.50;;;;;;5031983;28;20057;-69
2021/08/19 02:12:59;;;;;;;13.33;9.77;;;16.50;94.50;;;;;;5031713;28;20053;-69
2021/08/19 02:15:25;;;;;;;11.10;9.80;;;16.40;94.40;;;;;;5031440;28;20052;-69
2021/08/19 02:17:50;;;;;;;10.37;8.77;;;16.50;94.50;;;;;;5031118;28;20049;-69
2021/08/19 02:20:16;;;;;;;11.50;9.73;;;16.50;94.50;;;;;;5031842;28;20128;-69
2021/08/19 02:22:41;;;;;;;10.67;9.57;;;16.40;94.50;;;;;;5031233;28;20152;-69
2021/08/19 02:25:08;;;;;;;10.93;9.77;;;16.40;94.50;;;;;;5031927;28;20111;-69
2021/08/19 02:27:33;;;;;;;12.80;11.00;;;16.40;94.50;;;;;;5031655;28;20472;-69
2021/08/19 02:29:59;;;;;;;12.13;9.80;;;16.50;94.50;;;;;;5031091;28;20132;-68
2021/08/19 02:32:26;;;;;;;13.07;11.43;;;16.40;94.60;;;;;;5031796;28;20049;-69
2021/08/19 02:34:52;;;;;;;13.20;10.97;;;16.40;94.70;;;;;;5030732;28;20410;-69
2021/08/19 02:37:20;;;;;;;13.10;11.43;;;16.40;94.80;;;;;;5031703;28;20053;-69
2021/08/19 02:39:46;;;;;;;13.47;11.57;;;16.30;94.80;;;;;;5031354;28;20048;-68
2021/08/19 02:42:11;;;;;;;16.07;11.83;;;16.30;94.90;;;;;;5031362;28;20057;-70
2021/08/19 02:44:37;;;;;;;13.20;11.80;;;16.30;95.00;;;;;;5031971;28;20478;-69
2021/08/19 02:47:03;;;;;;;15.40;12.60;;;16.30;95.10;;;;;;5031451;28;20440;-68
2021/08/19 02:49:28;;;;;;;17.73;13.03;;;16.30;95.20;;;;;;5030955;28;20042;-69
2021/08/19 02:51:54;;;;;;;14.17;12.77;;;16.30;95.30;;;;;;5031212;28;20090;-69
2021/08/19 02:54:20;;;;;;;16.97;13.63;;;16.30;95.40;;;;;;5031535;28;20128;-68
2021/08/19 02:56:45;;;;;;;17.17;13.33;;;16.20;95.50;;;;;;5030787;28;20398;-69
2021/08/19 02:59:11;;;;;;;16.47;13.53;;;16.20;95.60;;;;;;5031594;28;20057;-68
2021/08/19 03:01:36;;;;;;;18.43;14.60;;;16.20;95.70;;;;;;5031777;28;20041;-69
2021/08/19 03:04:02;;;;;;;16.73;14.90;;;16.20;95.80;;;;;;5030609;28;20134;-68
2021/08/19 03:06:28;;;;;;;18.57;14.23;;;16.20;95.90;;;;;;5031731;28;20053;-69
2021/08/19 03:08:53;;;;;;;19.23;15.80;;;16.20;96.00;;;;;;5031040;28;20053;-68
2021/08/19 03:11:19;;;;;;;21.40;15.43;;;16.20;96.10;;;;;;5030808;28;20483;-68
2021/08/19 03:13:45;;;;;;;20.57;15.33;;;16.20;96.20;;;;;;5031308;28;20080;-69
2021/08/19 03:16:10;;;;;;;24.20;16.77;;;16.10;96.30;;;;;;5031737;28;20100;-70
2021/08/19 03:18:36;;;;;;;16.30;14.60;;;16.10;96.40;;;;;;5030894;28;20080;-69
2021/08/19 03:21:03;;;;;;;22.30;16.40;;;16.10;96.50;;;;;;5031169;28;20133;-69
2021/08/19 03:23:29;;;;;;;20.83;17.53;;;16.10;96.60;;;;;;5031482;28;20510;-69
2021/08/19 03:25:55;;;;;;;20.37;17.87;;;16.20;96.70;;;;;;5030610;28;20091;-70
2021/08/19 03:28:22;;;;;;;20.30;17.40;;;16.10;96.70;;;;;;5032524;28;20057;-69
2021/08/19 03:30:49;;;;;;;20.23;17.90;;;16.10;96.80;;;;;;5035298;28;20037;-69
2021/08/19 03:33:17;;;;;;;19.53;16.47;;;16.10;96.90;;;;;;5034593;28;20140;-69
2021/08/19 03:35:44;;;;;;;19.80;17.57;;;16.10;97.00;;;;;;5035247;28;20042;-70
2021/08/19 03:38:10;;;;;;;19.63;17.57;;;16.10;97.10;;;;;;5034613;28;20136;-69
2021/08/19 03:40:36;;;;;;;21.70;17.97;;;16.10;97.20;;;;;;5035358;28;20140;-69
2021/08/19 03:43:01;;;;;;;19.87;17.40;;;16.10;97.20;;;;;;5035037;28;20091;-69
2021/08/19 03:45:28;;;;;;;19.87;16.20;;;16.10;97.20;;;;;;5034599;28;20052;-69
2021/08/19 03:47:54;;;;;;;16.47;14.73;;;16.10;97.30;;;;;;5035005;28;20081;-69
2021/08/19 03:50:20;;;;;;;16.97;14.60;;;16.10;97.30;;;;;;5035073;28;20064;-69
2021/08/19 03:52:46;;;;;;;18.23;16.27;;;16.10;97.30;;;;;;5033964;28;20104;-70
2021/08/19 03:55:12;;;;;;;19.10;16.27;;;16.10;97.30;;;;;;5035041;28;20042;-69
2021/08/19 03:57:38;;;;;;;18.87;16.67;;;16.10;97.30;;;;;;5035350;28;20057;-69
2021/08/19 04:00:05;;;;;;;19.97;16.13;;;16.10;97.30;;;;;;5034659;28;20122;-69
2021/08/19 04:02:31;;;;;;;21.57;18.37;;;16.10;97.40;;;;;;5035037;28;20045;-69
2021/08/19 04:04:57;;;;;;;20.07;17.37;;;16.10;97.40;;;;;;5034591;28;20107;-69
2021/08/19 04:07:22;;;;;;;20.37;18.23;;;16.10;97.50;;;;;;5034152;28;20054;-69
2021/08/19 04:09:48;;;;;;;22.67;18.93;;;16.10;97.50;;;;;;5034671;28;20502;-69
2021/08/19 04:12:14;;;;;;;22.73;18.17;;;16.10;97.50;;;;;;5034781;28;20065;-69
2021/08/19 04:14:39;;;;;;;22.10;19.10;;;16.10;97.60;;;;;;5033681;28;20049;-70
2021/08/19 04:17:05;;;;;;;22.90;19.00;;;16.10;97.60;;;;;;5034636;28;20053;-69
2021/08/19 04:19:31;;;;;;;23.23;18.90;;;16.10;97.60;;;;;;5034817;28;20184;-69
2021/08/19 04:21:57;;;;;;;22.63;19.87;;;16.10;97.70;;;;;;5033551;28;20136;-70
2021/08/19 04:24:23;;;;;;;21.27;18.40;;;16.00;97.70;;;;;;5034727;28;20053;-70
2021/08/19 04:26:49;;;;;;;23.00;20.07;;;16.10;97.80;;;;;;5034299;28;20052;-71
2021/08/19 04:29:15;;;;;;;23.60;19.27;;;16.10;97.80;;;;;;5033871;28;20057;-70
2021/08/19 04:31:40;;;;;;;25.27;19.83;;;16.10;97.80;;;;;;5033929;28;20045;-70
2021/08/19 04:34:07;;;;;;;22.17;19.53;;;16.10;97.80;;;;;;5034376;28;20103;-70
2021/08/19 04:36:33;;;;;;;25.03;19.20;;;16.00;97.80;;;;;;5033574;28;20049;-70
2021/08/19 04:38:59;;;;;;;21.80;19.40;;;16.00;97.90;;;;;;5034557;28;20057;-70
2021/08/19 04:41:25;;;;;;;26.50;19.80;;;16.10;97.90;;;;;;5033127;28;20045;-71
2021/08/19 04:43:50;;;;;;;22.20;19.43;;;16.10;98.00;;;;;;5034216;28;20049;-71
2021/08/19 04:46:16;;;;;;;25.20;19.33;;;16.10;98.00;;;;;;5034241;28;20053;-69
2021/08/19 04:48:42;;;;;;;23.77;20.17;;;16.10;98.00;;;;;;5033165;28;20084;-70
2021/08/19 04:51:07;;;;;;;28.10;20.00;;;16.10;98.00;;;;;;5033953;28;20413;-70
2021/08/19 04:53:36;;;;;;;25.67;19.63;;;16.00;98.10;;;;;;5033953;28;20237;-70
2021/08/19 04:56:02;;;;;;;23.83;19.67;;;16.10;98.10;;;;;;5032936;28;20045;-70
2021/08/19 04:58:28;;;;;;;23.67;20.43;;;16.10;98.10;;;;;;5034345;28;20056;-71
2021/08/19 05:00:54;;;;;;;24.00;21.33;;;16.10;98.20;;;;;;5033554;28;20506;-71
2021/08/19 05:03:20;;;;;;;25.23;21.27;;;16.10;98.20;;;;;;5032946;28;20419;-69
2021/08/19 05:05:46;;;;;;;29.00;22.40;;;16.10;98.30;;;;;;5033140;28;20056;-70
2021/08/19 05:08:12;;;;;;;28.20;23.40;;;16.10;98.20;;;;;;5033912;28;20525;-71
2021/08/19 05:10:39;;;;;;;27.70;24.50;;;16.10;98.30;;;;;;5032887;28;20188;-71
2021/08/19 05:13:04;;;;;;;30.53;24.17;;;16.10;98.30;;;;;;5033623;28;20136;-70
2021/08/19 05:15:35;;;;;;;28.15;23.55;;;16.10;98.30;;;;;;5033771;28;20056;-71
2021/08/19 05:18:01;;;;;;;29.57;23.17;;;16.20;98.40;;;;;;5032499;28;20053;-71
2021/08/19 05:20:27;;;;;;;28.77;23.97;;;16.10;98.40;;;;;;5033906;28;20549;-71
2021/08/19 05:22:54;;;;;;;27.37;22.87;;;16.10;98.40;;;;;;5033235;28;20099;-71
2021/08/19 05:25:23;;;;;;;28.13;25.00;;;16.20;98.40;;;;;;5032746;28;20048;-71
2021/08/19 05:27:49;;;;;;;33.77;24.90;;;16.20;98.50;;;;;;5033122;28;20053;-71
2021/08/19 05:30:15;;;;;;;32.97;24.53;;;16.20;98.50;;;;;;5033384;28;20104;-70
2021/08/19 05:32:41;;;;;;;31.93;27.30;;;16.20;98.50;;;;;;5032530;28;20045;-70
2021/08/19 05:35:07;;;;;;;31.90;26.43;;;16.20;98.50;;;;;;5033468;28;20096;-70
2021/08/19 05:37:33;;;;;;;29.97;24.50;;;16.20;98.50;;;;;;5032762;28;20228;-70
2021/08/19 05:39:59;;;;;;;31.90;26.67;;;16.20;98.60;;;;;;5032827;28;20151;-69
2021/08/19 05:42:26;;;;;;;31.47;26.60;;;16.20;98.60;;;;;;5033290;28;20056;-70
2021/08/19 05:44:54;;;;;;;33.63;26.43;;;16.20;98.70;;;;;;5032066;28;20465;-69
2021/08/19 05:47:19;;;;;;;34.83;26.97;;;16.30;98.70;;;;;;5033140;28;20081;-70
2021/08/19 05:49:46;;;;;;;32.87;26.83;;;16.30;98.80;;;;;;5032951;28;20060;-70
2021/08/19 05:52:12;;;;;;;36.33;27.27;;;16.30;98.80;;;;;;5031195;28;20473;-70
2021/08/19 05:54:38;;;;;;;31.53;26.43;;;16.30;98.80;;;;;;5032987;28;20546;-70
2021/08/19 05:57:04;;;;;;;32.27;28.77;;;16.40;98.90;;;;;;5032961;28;20132;-69
2021/08/19 05:59:39;;;;;;;32.93;27.50;;;16.40;98.90;;;;;;5031551;28;20490;-70
2021/08/19 06:02:06;;;;;;;43.07;27.70;;;16.40;98.90;;;;;;5032937;28;20061;-69
2021/08/19 06:04:37;;;;;;;36.33;26.37;;;16.40;98.90;;;;;;5033009;28;20080;-70
2021/08/19 06:07:03;;;;;;;37.23;27.10;;;16.40;98.90;;;;;;5031746;28;20052;-69
2021/08/19 06:09:29;;;;;;;29.77;26.13;;;16.40;98.90;;;;;;5032607;28;20049;-70
2021/08/19 06:11:55;;;;;;;33.77;25.20;;;16.50;99.00;;;;;;5032152;28;20041;-70
2021/08/19 06:14:20;;;;;;;30.60;25.20;;;16.50;99.00;;;;;;5031733;28;20144;-69
2021/08/19 06:16:46;;;;;;;33.17;25.07;;;16.50;99.00;;;;;;5032189;28;20045;-70
2021/08/19 06:19:12;;;;;;;36.07;26.07;;;16.50;99.00;;;;;;5032349;28;20066;-69
2021/08/19 06:21:38;;;;;;;34.17;25.57;;;16.60;99.10;;;;;;5031678;28;20120;-70
2021/08/19 06:24:04;;;;;;;31.17;24.33;;;16.60;99.10;;;;;;5032427;28;20049;-70
2021/08/19 06:26:32;;;;;;;32.60;25.07;;;16.60;99.10;;;;;;5032051;28;20068;-70
2021/08/19 06:28:58;;;;;;;34.73;24.77;;;16.60;99.20;;;;;;5030953;28;20483;-70
2021/08/19 06:31:23;;;;;;;30.90;24.40;;;16.60;99.20;;;;;;5032253;28;20079;-70
2021/08/19 06:33:49;;;;;;;30.43;24.57;;;16.60;99.20;;;;;;5030812;28;20072;-70
2021/08/19 06:36:15;;;;;;;31.13;24.23;;;16.60;99.20;;;;;;5032239;28;20049;-69
2021/08/19 06:38:41;;;;;;;32.90;24.87;;;16.60;99.20;;;;;;5032991;28;20405;-69
2021/08/19 06:41:06;;;;;;;29.90;23.60;;;16.70;99.20;;;;;;5039372;28;20570;-69
2021/08/19 06:43:32;;;;;;;30.70;22.97;;;16.60;99.30;;;;;;5041326;28;20052;-69
2021/08/19 06:45:58;;;;;;;30.23;21.97;;;16.70;99.30;;;;;;5040888;28;20360;-70
2021/08/19 06:48:23;;;;;;;27.13;21.17;;;16.70;99.30;;;;;;5033984;28;20168;-69
2021/08/19 06:50:49;;;;;;;26.67;21.10;;;16.70;99.20;;;;;;5031396;28;20048;-69
2021/08/19 06:53:15;;;;;;;27.90;21.67;;;16.80;99.30;;;;;;5031516;28;20076;-69
2021/08/19 06:55:42;;;;;;;28.10;22.23;;;16.90;99.30;;;;;;5030489;28;20045;-70
2021/08/19 06:58:07;;;;;;;26.90;20.77;;;16.90;99.30;;;;;;5031177;28;20156;-69
2021/08/19 07:00:33;;;;;;;28.17;20.53;;;17.00;99.30;;;;;;5031881;28;20080;-69
2021/08/19 07:02:59;;;;;;;26.40;20.70;;;17.00;99.30;;;;;;5030568;28;20061;-69
2021/08/19 07:05:25;;;;;;;28.37;21.27;;;17.10;99.30;;;;;;5031518;28;20041;-69
2021/08/19 07:07:54;;;;;;;22.17;18.77;;;17.00;99.20;;;;;;5031186;28;20056;-69
2021/08/19 07:10:20;;;;;;;22.37;18.57;;;17.10;99.20;;;;;;5030728;28;20509;-69
2021/08/19 07:12:46;;;;;;;21.93;18.27;;;17.20;99.20;;;;;;5030779;28;20049;-71
2021/08/19 07:15:12;;;;;;;23.33;18.93;;;17.20;99.20;;;;;;5031685;28;20052;-69
2021/08/19 07:17:38;;;;;;;21.80;18.43;;;17.20;99.60;;;;;;5030561;28;20045;-69
2021/08/19 07:20:04;;;;;;;23.73;18.13;;;17.20;99.20;;;;;;5031482;28;20069;-69
2021/08/19 07:22:30;;;;;;;24.97;17.83;;;17.20;99.10;;;;;;5031200;28;20057;-68
2021/08/19 07:24:55;;;;;;;20.77;16.17;;;17.20;99.10;;;;;;5030468;28;20050;-70
2021/08/19 07:27:21;;;;;;;15.57;13.90;;;17.20;99.00;;;;;;5030939;28;20063;-71
2021/08/19 07:29:47;;;;;;;18.13;13.50;;;17.20;99.00;;;;;;5030984;28;20474;-70
2021/08/19 07:32:12;;;;;;;16.33;14.13;;;17.20;98.90;;;;;;5030581;28;20478;-70
2021/08/19 07:34:38;;;;;;;16.70;14.77;;;17.30;99.00;;;;;;5031448;28;20049;-70
2021/08/19 07:37:04;;;;;;;18.77;15.87;;;17.30;99.00;;;;;;5030826;28;20057;-70
2021/08/19 07:39:30;;;;;;;22.60;16.73;;;17.40;99.00;;;;;;5031589;28;20495;-69
2021/08/19 07:41:55;;;;;;;18.37;14.07;;;17.40;99.00;;;;;;5030758;28;20042;-70
2021/08/19 07:44:21;;;;;;;17.20;13.03;;;17.50;99.00;;;;;;5030715;28;20490;-70
2021/08/19 07:46:47;;;;;;;15.97;10.27;;;17.50;98.80;;;;;;5030957;28;20402;-69
2021/08/19 07:49:13;;;;;;;14.10;10.20;;;17.50;98.60;;;;;;5031399;28;20111;-70
2021/08/19 07:51:39;;;;;;;11.17;9.27;;;17.40;98.80;;;;;;5030450;28;20057;-70
2021/08/19 07:54:05;;;;;;;11.90;8.70;;;17.40;98.30;;;;;;5030930;28;20049;-70
2021/08/19 07:56:30;;;;;;;13.27;9.37;;;17.40;98.20;;;;;;5030901;28;20067;-71
2021/08/19 07:58:58;;;;;;;13.67;8.87;;;17.40;98.10;;;;;;5030285;28;20102;-70
2021/08/19 08:01:24;;;;;;;10.30;8.53;;;17.50;98.10;;;;;;5030508;28;20490;-70
2021/08/19 08:03:49;;;;;;;12.37;8.97;;;17.50;98.00;;;;;;5030696;28;20056;-70
2021/08/19 08:06:15;;;;;;;12.87;9.50;;;17.50;98.00;;;;;;5030273;28;20041;-70
2021/08/19 08:08:41;;;;;;;12.27;9.27;;;17.60;97.90;;;;;;5030005;28;20069;-71
2021/08/19 08:11:06;;;;;;;13.53;9.07;;;17.60;97.90;;;;;;5030774;28;20057;-70
2021/08/19 08:13:32;;;;;;;11.07;9.50;;;17.60;97.80;;;;;;5029816;28;20432;-71
2021/08/19 08:15:57;;;;;;;13.03;9.20;;;17.70;97.70;;;;;;5032300;28;20502;-70
2021/08/19 08:18:23;;;;;;;11.70;9.07;;;17.70;97.60;;;;;;5034127;28;20119;-69
2021/08/19 08:20:49;;;;;;;10.67;9.00;;;17.80;97.60;;;;;;5033305;28;20037;-68
2021/08/19 08:23:19;;;;;;;10.03;8.27;;;17.80;97.50;;;;;;5034455;28;20135;-69
2021/08/19 08:25:47;;;;;;;12.57;8.90;;;17.80;97.30;;;;;;5031696;28;20048;-69
2021/08/19 08:28:15;;;;;;;10.73;9.33;;;17.80;97.20;;;;;;5049828;28;20112;-70
2021/08/19 08:30:45;;;;;;;10.50;8.70;;;17.80;97.20;;;;;;5050755;28;20385;-71
2021/08/19 08:33:13;;;;;;;10.53;9.20;;;17.80;97.20;;;;;;5050617;28;20144;-70
2021/08/19 08:35:39;;;;;;;9.57;7.50;;;17.90;97.20;;;;;;5049702;28;20056;-70
2021/08/19 08:38:07;;;;;;;11.33;7.50;;;17.90;97.20;;;;;;5050058;28;20083;-70
2021/08/19 08:40:35;;;;;;;9.23;7.00;;;17.90;97.20;;;;;;5050298;28;20132;-71
2021/08/19 08:43:02;;;;;;;10.30;7.40;;;17.90;97.20;;;;;;5048898;28;20053;-68
2021/08/19 08:45:34;;;;;;;9.87;7.13;;;17.90;97.20;;;;;;5049983;28;20525;-69
2021/08/19 08:48:04;;;;;;;7.13;5.03;;;17.90;97.10;;;;;;5049132;28;20060;-68
2021/08/19 08:50:31;;;;;;;8.20;5.80;;;17.90;97.10;;;;;;5050619;28;20055;-68
2021/08/19 08:52:58;;;;;;;7.63;5.57;;;18.00;97.20;;;;;;5049540;28;20160;-68
2021/08/19 08:55:25;;;;;;;8.97;5.30;;;18.00;97.10;;;;;;5049608;28;20044;-69
2021/08/19 08:57:52;;;;;;;7.53;5.27;;;18.00;96.90;;;;;;5049959;28;20790;-68
2021/08/19 09:00:18;;;;;;;5.97;5.30;;;18.00;96.90;;;;;;5050333;28;20044;-69
2021/08/19 09:02:44;;;;;;;5.90;4.60;;;18.00;96.90;;;;;;5048402;28;20060;-68
2021/08/19 09:05:13;;;;;;;6.67;4.87;;;18.00;96.90;;;;;;5049313;28;20053;-67
2021/08/19 09:07:39;;;;;;;5.80;4.33;;;18.10;96.80;;;;;;5050016;28;20052;-68
2021/08/19 09:10:05;;;;;;;5.57;4.50;;;18.10;96.70;;;;;;5048731;28;20041;-67
2021/08/19 09:12:39;;;;;;;5.37;4.40;;;18.20;96.70;;;;;;5050166;28;20045;-67
2021/08/19 09:15:16;;;;;;;5.83;4.17;;;18.20;96.50;;;;;;5053414;28;20041;-68
2021/08/19 09:17:52;;;;;;;6.27;4.50;;;18.30;96.40;;;;;;5052031;28;20127;-67
2021/08/19 09:20:30;;;;;;;5.13;4.63;;;18.40;96.20;;;;;;5052887;28;20057;-67
2021/08/19 09:23:18;;;;;;;5.73;4.50;;;18.40;96.00;;;;;;5052081;28;20508;-66
2021/08/19 09:25:46;;;;;;;6.23;4.70;;;18.40;95.80;;;;;;5052777;28;20128;-69
2021/08/19 09:28:26;;;;;;;8.43;5.40;;;18.50;95.90;;;;;;5052780;28;20053;-69
2021/08/19 09:30:54;;;;;;;7.13;5.67;;;18.50;95.80;;;;;;5052250;28;20382;-70
2021/08/19 09:33:25;;;;;;;7.30;5.40;;;18.60;95.70;;;;;;5052794;28;20094;-68
2021/08/19 09:35:52;;;;;;;;;;;18.60;95.50;;;;;;5053332;28;20124;-69
2021/08/19 09:38:21;;;;;;;6.63;5.40;;;18.60;95.00;;;;;;5052125;28;19988;-69
2021/08/19 09:41:12;;;;;;;6.17;5.10;;;18.70;95.30;;;;;;5052439;28;20127;-68
2021/08/19 09:43:45;;;;;;;7.20;5.97;;;18.70;95.10;;;;;;5052971;28;20055;-70
2021/08/19 09:46:14;;;;;;;6.67;5.60;;;18.70;95.10;;;;;;5052926;28;20044;-68
2021/08/19 09:48:43;;;;;;;6.60;5.60;;;18.70;95.00;;;;;;5052435;28;20098;-69
2021/08/19 09:51:22;;;;;;;7.23;5.83;;;18.70;95.10;;;;;;5048156;28;20053;-68
2021/08/19 09:53:57;;;;;;;7.23;6.17;;;18.70;95.10;;;;;;5041651;28;20053;-68
2021/08/19 09:56:30;;;;;;;8.57;6.73;;;18.70;95.10;;;;;;5042033;28;20126;-68
2021/08/19 09:59:22;;;;;;;9.67;7.50;;;18.70;95.20;;;;;;5039660;28;20111;-68
2021/08/19 10:01:49;;;;;;;9.80;8.10;;;18.70;95.40;;;;;;5041994;28;20045;-68
2021/08/19 10:04:15;;;;;;;4.90;4.17;;;18.70;95.50;;;;;;5032676;28;20052;-67
2021/08/19 10:06:41;;;;;;;5.30;3.70;;;18.60;95.30;;;;;;5031609;28;20051;-68
2021/08/19 10:09:07;;;;;;;5.47;4.20;;;18.30;95.00;;;;;;5032312;28;20053;-68
2021/08/19 10:11:33;;;;;;;7.07;3.80;;;18.00;95.10;;;;;;5032434;28;20053;-69
2021/08/19 10:14:03;;;;;;;7.33;4.20;;;17.80;95.50;;;;;;5030891;28;20077;-68
2021/08/19 10:16:30;;;;;;;8.37;4.70;;;17.60;95.70;;;;;;5032252;28;20490;-68
2021/08/19 10:19:00;;;;;;;7.03;4.97;;;17.40;96.00;;;;;;5031155;28;20061;-67
2021/08/19 10:21:28;;;;;;;5.10;4.37;;;17.30;96.30;;;;;;5032581;28;20073;-67
2021/08/19 10:23:56;;;;;;;7.93;4.43;;;17.20;96.50;;;;;;5032029;28;20053;-68
2021/08/19 10:26:26;;;;;;;6.50;5.07;;;17.10;96.60;;;;;;5031504;28;20045;-67
2021/08/19 10:28:59;;;;;;;6.13;4.67;;;17.00;96.90;;;;;;5031395;28;20045;-67
2021/08/19 10:31:40;;;;;;;7.53;5.57;;;17.00;97.20;;;;;;5032228;28;20049;-68
2021/08/19 10:34:07;;;;;;;6.73;4.87;;;17.00;97.30;;;;;;5031144;28;20076;-68
2021/08/19 10:36:38;;;;;;;8.43;5.67;;;17.00;97.40;;;;;;5032143;28;20382;-67
2021/08/19 10:39:25;;;;;;;8.10;5.47;;;16.90;97.50;;;;;;5031138;28;20513;-68
2021/08/19 10:41:52;;;;;;;8.53;6.30;;;16.90;97.60;;;;;;5030853;28;20140;-68
2021/08/19 10:44:26;;;;;;;8.67;7.20;;;16.80;97.70;;;;;;5031147;28;20056;-69
2021/08/19 10:46:52;;;;;;;10.87;7.60;;;16.80;97.90;;;;;;5047646;28;20479;-68
2021/08/19 10:49:31;;;;;;;12.40;8.97;;;16.80;98.10;;;;;;5048010;28;20080;-68
2021/08/19 10:52:09;;;;;;;13.87;9.00;;;16.80;98.30;;;;;;5047505;28;20072;-69
2021/08/19 10:54:47;;;;;;;12.43;9.13;;;16.90;98.50;;;;;;5047442;28;20140;-68
2021/08/19 10:57:24;;;;;;;11.47;7.20;;;16.90;98.60;;;;;;5047812;28;20045;-69
2021/08/19 11:00:06;;;;;;;9.03;7.10;;;16.90;98.70;;;;;;5048264;28;20053;-69
2021/08/19 11:02:55;;;;;;;9.88;8.32;;;17.00;98.70;;;;;;5047838;28;20570;-69
2021/08/19 11:05:20;;;;;;;9.70;8.37;;;17.10;98.80;;;;;;5047977;28;20788;-68
2021/08/19 11:08:03;;;;;;;10.13;8.30;;;17.20;98.80;;;;;;5047509;28;20048;-69
2021/08/19 11:10:31;;;;;;;9.83;8.40;;;17.30;98.80;;;;;;5046604;28;20075;-69
2021/08/19 11:13:10;;;;;;;12.67;9.03;;;17.20;98.70;;;;;;5048097;28;20048;-70
2021/08/19 11:15:45;;;;;;;14.67;10.40;;;17.30;98.70;;;;;;5045704;28;20045;-69
2021/08/19 11:18:27;;;;;;;12.10;10.10;;;17.30;98.80;;;;;;5046932;28;20052;-69
2021/08/19 11:20:52;;;;;;;12.32;9.60;;;17.40;98.80;;;;;;5046323;28;20571;-68
2021/08/19 11:23:18;;;;;;;12.30;9.10;;;17.40;98.70;;;;;;5046826;28;20049;-68
2021/08/19 11:25:45;;;;;;;10.27;7.90;;;17.50;98.60;;;;;;5047036;28;20072;-70
2021/08/19 11:28:16;;;;;;;10.67;8.50;;;17.50;98.40;;;;;;5047321;28;20478;-70
2021/08/19 11:30:50;;;;;;;10.40;7.95;;;17.50;98.30;;;;;;5046753;28;20191;-69
2021/08/19 11:33:18;;;;;;;12.27;8.43;;;17.60;98.70;;;;;;5047966;28;20136;-71
2021/08/19 11:35:46;;;;;;;9.43;7.53;;;17.70;98.30;;;;;;5047227;28;20041;-71
2021/08/19 11:38:13;;;;;;;9.37;8.17;;;17.70;98.30;;;;;;5046708;28;20234;-71
2021/08/19 11:40:42;;;;;;;10.17;7.70;;;17.80;98.30;;;;;;5048883;28;20099;-71
2021/08/19 11:43:23;;;;;;;13.57;7.87;;;17.90;98.10;;;;;;5050879;28;20383;-71
2021/08/19 11:45:52;;;;;;;10.98;7.55;;;18.00;97.90;;;;;;5050848;28;20052;-72
2021/08/19 11:48:19;;;;;;;11.47;7.77;;;18.10;97.70;;;;;;5051100;28;20049;-72
2021/08/19 11:50:51;;;;;;;11.00;7.43;;;18.20;97.30;;;;;;5051884;28;20073;-73
2021/08/19 11:53:17;;;;;;;12.23;8.03;;;18.20;96.90;;;;;;5055238;28;20088;-72
2021/08/19 11:55:43;;;;;;;12.63;8.37;;;18.20;96.80;;;;;;5054510;28;20080;-72
2021/08/19 11:58:25;;;;;;;10.10;8.00;;;18.20;96.70;;;;;;5054182;28;20151;-72
2021/08/19 12:01:05;;;;;;;13.77;8.23;;;18.10;96.30;;;;;;5054914;28;20059;-73
2021/08/19 12:03:35;;;;;;;11.27;7.87;;;18.10;96.30;;;;;;5055112;28;20049;-72
2021/08/19 12:06:01;;;;;;;10.97;8.03;;;18.10;96.30;;;;;;5054175;28;20045;-71
2021/08/19 12:08:28;;;;;;;10.80;8.03;;;18.10;96.40;;;;;;5055199;28;20165;-72
2021/08/19 12:10:56;;;;;;;11.93;8.90;;;18.10;96.30;;;;;;5054789;28;20049;-72
2021/08/19 12:13:23;;;;;;;10.40;8.23;;;18.10;96.40;;;;;;5054166;28;20128;-72
2021/08/19 12:15:49;;;;;;;10.20;7.90;;;18.10;96.40;;;;;;5054866;28;20049;-72
2021/08/19 12:18:20;;;;;;;10.40;8.77;;;18.10;96.50;;;;;;5054721;28;20559;-72
2021/08/19 12:20:46;;;;;;;13.38;7.95;;;18.10;96.50;;;;;;5053736;28;20049;-72
2021/08/19 12:23:17;;;;;;;11.00;9.07;;;18.10;96.60;;;;;;5055149;28;20431;-72
2021/08/19 12:25:46;;;;;;;12.33;7.93;;;18.10;96.70;;;;;;5053812;28;20072;-72
2021/08/19 12:28:12;;;;;;;12.23;7.90;;;18.10;96.70;;;;;;5054587;28;20045;-72
2021/08/19 12:30:58;;;;;;;11.27;7.70;;;18.10;96.60;;;;;;5054507;28;20045;-72
2021/08/19 12:33:39;;;;;;;10.20;7.03;;;18.00;96.50;;;;;;5053485;28;20064;-71
2021/08/19 12:36:11;;;;;;;9.27;6.50;;;18.00;96.10;;;;;;5054922;28;20080;-72